Time;durP1;ratioP1;P1;durP2;ratioP2;P2;SDS_P1;SDS_P2;PMS_P1;PMS_P2;Temp;Humidity;BMP_temperature;BMP_pressure;BME280_temperature;BME280_humidity;BME280_pressure;Samples;Min_cycle;Max_cycle;Signal;HPM_P1;HPM_P2
2023/04/13 00:00:43;;;;;;;5.50;1.67;;;;;;;;;;5033431;28;20571;-68
2023/04/13 00:03:11;;;;;;;7.10;1.90;;;;;;;;;;5033789;28;20135;-68
2023/04/13 00:05:38;;;;;;;8.40;1.80;;;;;;;;;;5057758;28;20048;-68
2023/04/13 00:08:04;;;;;;;3.55;1.60;;;;;;;;;;5043884;28;20044;-68
2023/04/13 00:10:35;;;;;;;4.88;1.73;;;;;;;;;;5060357;28;20087;-68
2023/04/13 00:13:03;;;;;;;5.68;1.73;;;;;;;;;;5058611;28;20400;-68
2023/04/13 00:15:30;;;;;;;4.45;1.73;;;;;;;;;;5058407;28;20040;-68
2023/04/13 00:17:57;;;;;;;5.15;2.10;;;;;;;;;;5058248;28;20072;-68
2023/04/13 00:20:23;;;;;;;5.60;1.85;;;;;;;;;;5056462;28;20109;-68
2023/04/13 00:22:49;;;;;;;5.97;1.63;;;;;;;;;;5057470;28;20044;-68
2023/04/13 00:25:16;;;;;;;3.83;1.38;;;;;;;;;;5050676;28;20139;-68
2023/04/13 00:27:42;;;;;;;3.85;1.55;;;;;;;;;;5052240;28;20081;-68
2023/04/13 00:30:10;;;;;;;11.00;2.47;;;;;;;;;;5049840;28;20067;-68
2023/04/13 00:32:37;;;;;;;8.57;1.70;;;;;;;;;;5056677;28;20044;-67
2023/04/13 00:35:03;;;;;;;4.97;2.03;;;;;;;;;;5042280;28;20122;-67
2023/04/13 00:37:31;;;;;;;4.70;1.70;;;;;;;;;;5057903;28;20044;-67
2023/04/13 00:39:58;;;;;;;2.88;1.33;;;;;;;;;;5056186;28;20044;-67
2023/04/13 00:42:24;;;;;;;6.78;2.80;;;;;;;;;;5059624;28;20037;-67
2023/04/13 00:44:51;;;;;;;5.60;1.73;;;;;;;;;;5057804;28;20139;-67
2023/04/13 00:47:25;;;;;;;6.43;2.38;;;;;;;;;;5015126;28;20040;-67
2023/04/13 00:49:52;;;;;;;7.47;2.05;;;;;;;;;;5039994;28;20059;-67
2023/04/13 00:52:20;;;;;;;4.00;2.10;;;;;;;;;;5058523;28;20444;-67
2023/04/13 00:54:47;;;;;;;5.07;2.20;;;;;;;;;;5058648;28;20059;-67
2023/04/13 00:57:15;;;;;;;6.13;1.73;;;;;;;;;;5038975;28;20043;-67
2023/04/13 00:59:41;;;;;;;7.13;1.75;;;;;;;;;;5042185;28;20044;-67
2023/04/13 01:02:07;;;;;;;5.85;2.13;;;;;;;;;;5059073;28;20075;-67
2023/04/13 01:04:33;;;;;;;5.97;2.05;;;;;;;;;;5057279;28;20036;-67
2023/04/13 01:07:01;;;;;;;5.70;1.85;;;;;;;;;;5056456;28;20056;-67
2023/04/13 01:09:30;;;;;;;4.70;1.60;;;;;;;;;;5058699;28;20036;-67
2023/04/13 01:12:11;;;;;;;6.07;1.83;;;;;;;;;;5054706;28;20056;-67
2023/04/13 01:14:39;;;;;;;4.00;1.50;;;;;;;;;;5051943;28;20110;-67
2023/04/13 01:17:10;;;;;;;5.75;1.52;;;;;;;;;;5052646;28;20163;-67
2023/04/13 01:19:36;;;;;;;3.97;1.60;;;;;;;;;;5052337;28;20060;-67
2023/04/13 01:22:03;;;;;;;5.50;1.50;;;;;;;;;;5035084;28;20049;-67
2023/04/13 01:24:42;;;;;;;6.22;2.00;;;;;;;;;;5031371;28;20044;-67
2023/04/13 01:27:19;;;;;;;6.30;1.73;;;;;;;;;;5052876;28;20064;-67
2023/04/13 01:29:45;;;;;;;4.30;1.48;;;;;;;;;;5051957;28;20484;-67
2023/04/13 01:32:13;;;;;;;5.38;1.67;;;;;;;;;;5047932;28;20051;-67
2023/04/13 01:34:40;;;;;;;6.22;1.88;;;;;;;;;;5047230;28;20076;-67
2023/04/13 01:37:06;;;;;;;4.88;2.08;;;;;;;;;;5056432;28;20044;-67
2023/04/13 01:39:32;;;;;;;7.20;2.08;;;;;;;;;;5038232;28;20513;-67
2023/04/13 01:41:59;;;;;;;4.78;1.98;;;;;;;;;;5054159;28;20131;-67
2023/04/13 01:44:28;;;;;;;6.18;1.80;;;;;;;;;;5049686;28;20502;-67
2023/04/13 01:46:59;;;;;;;9.27;2.45;;;;;;;;;;5051730;28;20051;-67
2023/04/13 01:49:26;;;;;;;5.03;2.00;;;;;;;;;;5050321;28;20045;-67
2023/04/13 01:51:53;;;;;;;7.35;2.10;;;;;;;;;;5056475;28;20072;-67
2023/04/13 01:54:22;;;;;;;5.00;1.80;;;;;;;;;;5054881;28;21331;-67
2023/04/13 01:56:49;;;;;;;3.97;2.08;;;;;;;;;;5053476;28;20123;-67
2023/04/13 01:59:15;;;;;;;6.82;2.38;;;;;;;;;;5050828;28;20059;-67
2023/04/13 02:01:41;;;;;;;4.93;2.15;;;;;;;;;;5038749;28;20045;-67
2023/04/13 02:04:08;;;;;;;6.00;2.20;;;;;;;;;;5034972;28;20082;-67
2023/04/13 02:06:36;;;;;;;6.88;2.90;;;;;;;;;;5051099;28;20051;-67
2023/04/13 02:09:05;;;;;;;10.20;3.17;;;;;;;;;;5054339;28;20484;-67
2023/04/13 02:11:32;;;;;;;7.78;2.70;;;;;;;;;;5052151;28;20120;-67
2023/04/13 02:13:58;;;;;;;6.47;2.65;;;;;;;;;;5050754;28;20044;-67
2023/04/13 02:16:24;;;;;;;8.88;3.50;;;;;;;;;;5051282;28;20045;-67
2023/04/13 02:18:51;;;;;;;5.90;2.83;;;;;;;;;;5032419;28;20114;-67
2023/04/13 02:21:17;;;;;;;6.22;2.70;;;;;;;;;;5031202;28;20057;-67
2023/04/13 02:23:43;;;;;;;9.10;3.20;;;;;;;;;;5047108;28;20041;-67
2023/04/13 02:26:17;;;;;;;7.50;3.35;;;;;;;;;;5049098;28;20155;-67
2023/04/13 02:28:44;;;;;;;8.13;3.50;;;;;;;;;;5051787;28;20040;-67
2023/04/13 02:31:15;;;;;;;7.57;2.97;;;;;;;;;;5051610;28;20059;-67
2023/04/13 02:33:43;;;;;;;9.65;3.40;;;;;;;;;;5048930;28;20045;-67
2023/04/13 02:36:09;;;;;;;4.15;2.50;;;;;;;;;;5048362;28;20050;-67
2023/04/13 02:38:37;;;;;;;8.13;3.20;;;;;;;;;;5028661;28;20061;-67
2023/04/13 02:41:03;;;;;;;5.47;2.78;;;;;;;;;;5054399;28;20481;-67
2023/04/13 02:43:29;;;;;;;5.03;2.80;;;;;;;;;;5055153;28;20377;-67
2023/04/13 02:45:56;;;;;;;9.18;3.67;;;;;;;;;;5052577;28;20747;-67
2023/04/13 02:48:22;;;;;;;5.60;3.08;;;;;;;;;;5055625;28;20047;-67
2023/04/13 02:50:48;;;;;;;5.32;2.75;;;;;;;;;;5038057;28;20078;-67
2023/04/13 02:53:16;;;;;;;10.45;3.42;;;;;;;;;;5054976;28;20449;-67
2023/04/13 02:55:42;;;;;;;8.38;2.90;;;;;;;;;;5036124;28;20487;-67
2023/04/13 02:58:08;;;;;;;2.72;1.20;;;;;;;;;;5059624;28;20048;-66
2023/04/13 03:00:35;;;;;;;6.20;0.95;;;;;;;;;;5057820;28;20614;-66
2023/04/13 03:03:02;;;;;;;3.30;0.90;;;;;;;;;;5014818;28;20044;-67
2023/04/13 03:05:30;;;;;;;2.17;0.70;;;;;;;;;;5056642;28;20392;-67
2023/04/13 03:07:57;;;;;;;2.13;0.75;;;;;;;;;;5056076;28;20482;-67
2023/04/13 03:10:23;;;;;;;3.75;1.35;;;;;;;;;;5033472;28;20175;-67
2023/04/13 03:12:49;;;;;;;4.70;1.40;;;;;;;;;;5053758;28;20109;-67
2023/04/13 03:15:17;;;;;;;4.45;1.30;;;;;;;;;;5057872;28;20066;-67
2023/04/13 03:17:43;;;;;;;4.93;2.60;;;;;;;;;;5057425;28;20040;-75
2023/04/13 03:20:12;;;;;;;6.13;2.40;;;;;;;;;;5064420;28;20052;-67
2023/04/13 03:22:38;;;;;;;6.93;2.80;;;;;;;;;;5039049;28;20060;-67
2023/04/13 03:25:05;;;;;;;8.95;2.60;;;;;;;;;;5052015;28;20047;-67
2023/04/13 03:27:32;;;;;;;6.82;3.28;;;;;;;;;;5055042;28;20424;-67
2023/04/13 03:29:58;;;;;;;8.70;4.40;;;;;;;;;;5053315;28;20037;-67
2023/04/13 03:32:24;;;;;;;8.90;4.63;;;;;;;;;;5048302;28;20056;-67
2023/04/13 03:34:50;;;;;;;8.50;4.20;;;;;;;;;;5053141;28;20056;-67
2023/04/13 03:37:16;;;;;;;7.70;4.90;;;;;;;;;;5036623;28;20052;-67
2023/04/13 03:39:43;;;;;;;10.18;4.50;;;;;;;;;;5033650;28;20068;-67
2023/04/13 03:42:09;;;;;;;9.73;4.80;;;;;;;;;;5032542;28;20040;-67
2023/04/13 03:44:35;;;;;;;8.35;4.60;;;;;;;;;;5052613;28;20060;-67
2023/04/13 03:47:01;;;;;;;7.82;3.92;;;;;;;;;;5010182;28;20096;-67
2023/04/13 03:49:29;;;;;;;9.10;3.25;;;;;;;;;;5050421;28;20047;-67
2023/04/13 03:51:56;;;;;;;9.55;3.30;;;;;;;;;;5059339;28;20214;-67
2023/04/13 03:54:22;;;;;;;10.73;3.50;;;;;;;;;;5042039;28;20053;-67
2023/04/13 03:56:50;;;;;;;5.50;2.97;;;;;;;;;;5056609;28;20048;-67
2023/04/13 03:59:16;;;;;;;6.25;2.25;;;;;;;;;;5050481;28;21629;-67
2023/04/13 04:01:42;;;;;;;10.38;2.10;;;;;;;;;;5049339;28;20052;-67
2023/04/13 04:04:09;;;;;;;3.95;1.77;;;;;;;;;;5050229;28;20052;-67
2023/04/13 04:06:35;;;;;;;4.20;1.65;;;;;;;;;;5052238;28;20040;-67
2023/04/13 04:09:01;;;;;;;5.28;2.33;;;;;;;;;;5035753;28;20049;-67
2023/04/13 04:11:27;;;;;;;7.40;2.47;;;;;;;;;;5057452;28;20132;-67
2023/04/13 04:13:53;;;;;;;5.03;2.47;;;;;;;;;;5060552;28;20419;-67
2023/04/13 04:16:20;;;;;;;5.40;2.50;;;;;;;;;;5052958;28;20040;-67
2023/04/13 04:18:46;;;;;;;6.35;2.40;;;;;;;;;;5055863;28;20203;-67
2023/04/13 04:21:12;;;;;;;9.82;3.28;;;;;;;;;;5054071;28;20079;-67
2023/04/13 04:23:38;;;;;;;5.97;3.30;;;;;;;;;;5032259;28;21915;-67
2023/04/13 04:26:05;;;;;;;8.93;3.08;;;;;;;;;;5054995;28;20041;-67
2023/04/13 04:28:37;;;;;;;8.73;3.63;;;;;;;;;;5053375;28;20534;-67
2023/04/13 04:31:04;;;;;;;9.30;3.50;;;;;;;;;;5057002;28;20052;-67
2023/04/13 04:33:30;;;;;;;7.00;3.10;;;;;;;;;;5055326;28;20113;-67
2023/04/13 04:35:57;;;;;;;9.07;3.08;;;;;;;;;;5058191;28;20056;-67
2023/04/13 04:38:23;;;;;;;12.05;3.17;;;;;;;;;;5059660;28;20119;-67
2023/04/13 04:40:56;;;;;;;7.65;2.70;;;;;;;;;;5047783;28;20044;-67
2023/04/13 04:43:24;;;;;;;11.85;3.35;;;;;;;;;;5055606;28;20110;-67
2023/04/13 04:45:50;;;;;;;11.32;2.92;;;;;;;;;;5059132;28;20063;-67
2023/04/13 04:48:18;;;;;;;13.20;3.15;;;;;;;;;;5037466;28;21055;-67
2023/04/13 04:50:45;;;;;;;12.35;2.78;;;;;;;;;;5056536;28;20055;-67
2023/04/13 04:53:11;;;;;;;10.40;2.95;;;;;;;;;;5038793;28;20045;-67
2023/04/13 04:55:38;;;;;;;16.65;3.50;;;;;;;;;;5059020;28;20059;-67
2023/04/13 04:58:04;;;;;;;13.38;3.28;;;;;;;;;;5038801;28;20148;-67
2023/04/13 05:00:30;;;;;;;16.55;3.28;;;;;;;;;;5058045;28;20181;-67
2023/04/13 05:02:59;;;;;;;10.57;3.13;;;;;;;;;;5058032;28;20047;-67
2023/04/13 05:05:25;;;;;;;14.27;3.33;;;;;;;;;;5055255;28;20124;-67
2023/04/13 05:07:52;;;;;;;10.45;2.70;;;;;;;;;;5039252;28;20135;-67
2023/04/13 05:10:18;;;;;;;14.73;3.60;;;;;;;;;;5039309;28;21239;-67
2023/04/13 05:12:44;;;;;;;15.70;3.53;;;;;;;;;;5053808;28;20497;-67
2023/04/13 05:15:11;;;;;;;10.57;2.72;;;;;;;;;;5060295;28;20048;-67
2023/04/13 05:17:37;;;;;;;18.67;2.90;;;;;;;;;;5054278;28;20135;-67
2023/04/13 05:20:05;;;;;;;11.35;2.78;;;;;;;;;;5030651;28;20053;-66
2023/04/13 05:22:32;;;;;;;14.50;3.08;;;;;;;;;;5032887;28;20132;-67
2023/04/13 05:24:58;;;;;;;17.77;3.38;;;;;;;;;;5030926;28;20041;-68
2023/04/13 05:27:24;;;;;;;18.67;3.78;;;;;;;;;;5035357;28;20049;-66
2023/04/13 05:29:51;;;;;;;18.13;3.55;;;;;;;;;;5039290;28;20140;-67
2023/04/13 05:32:17;;;;;;;15.85;3.30;;;;;;;;;;5041046;28;20048;-66
2023/04/13 05:34:43;;;;;;;15.05;3.42;;;;;;;;;;5043022;28;20060;-66
2023/04/13 05:37:10;;;;;;;13.90;2.80;;;;;;;;;;5041654;28;20041;-66
2023/04/13 05:39:37;;;;;;;13.30;2.85;;;;;;;;;;5039253;28;20063;-66
2023/04/13 05:42:03;;;;;;;16.73;3.90;;;;;;;;;;5035364;28;20045;-66
2023/04/13 05:44:30;;;;;;;15.50;3.28;;;;;;;;;;5032196;28;20156;-66
2023/04/13 05:46:57;;;;;;;20.33;3.30;;;;;;;;;;5034751;28;20048;-66
2023/04/13 05:49:23;;;;;;;16.90;3.53;;;;;;;;;;5034985;28;20076;-67
2023/04/13 05:51:50;;;;;;;9.05;2.58;;;;;;;;;;5025488;28;20077;-67
2023/04/13 05:54:16;;;;;;;15.52;2.80;;;;;;;;;;5038283;28;20445;-66
2023/04/13 05:56:42;;;;;;;11.45;3.38;;;;;;;;;;5034814;28;20446;-66
2023/04/13 05:59:09;;;;;;;9.38;2.60;;;;;;;;;;5036137;28;20444;-67
2023/04/13 06:01:36;;;;;;;16.85;3.45;;;;;;;;;;5038574;28;20049;-66
2023/04/13 06:04:02;;;;;;;8.50;3.17;;;;;;;;;;5034902;28;20087;-66
2023/04/13 06:06:29;;;;;;;11.60;3.63;;;;;;;;;;5038392;28;20047;-66
2023/04/13 06:08:55;;;;;;;14.05;3.35;;;;;;;;;;5038424;28;20136;-66
2023/04/13 06:11:23;;;;;;;12.43;4.75;;;;;;;;;;5019204;28;20515;-66
2023/04/13 06:13:50;;;;;;;10.52;3.92;;;;;;;;;;5035531;28;20060;-66
2023/04/13 06:16:17;;;;;;;10.02;3.10;;;;;;;;;;5034194;28;20115;-66
2023/04/13 06:18:44;;;;;;;14.23;4.03;;;;;;;;;;5040914;28;20118;-66
2023/04/13 06:21:10;;;;;;;11.57;3.25;;;;;;;;;;5038767;28;20044;-66
2023/04/13 06:23:36;;;;;;;17.95;4.43;;;;;;;;;;5054549;28;20519;-66
2023/04/13 06:26:02;;;;;;;10.20;4.00;;;;;;;;;;5058155;28;20044;-67
2023/04/13 06:28:30;;;;;;;16.60;5.72;;;;;;;;;;5049760;28;20060;-64
2023/04/13 06:30:56;;;;;;;15.70;4.40;;;;;;;;;;5053919;28;20049;-64
2023/04/13 06:33:22;;;;;;;14.07;4.25;;;;;;;;;;5039871;28;20033;-66
2023/04/13 06:35:51;;;;;;;12.30;4.22;;;;;;;;;;5056078;28;20056;-69
2023/04/13 06:38:17;;;;;;;20.70;4.68;;;;;;;;;;5054419;28;20472;-69
2023/04/13 06:40:44;;;;;;;11.57;4.25;;;;;;;;;;5052470;28;20516;-71
2023/04/13 06:43:10;;;;;;;14.77;4.43;;;;;;;;;;5035708;28;20519;-71
2023/04/13 06:45:36;;;;;;;11.30;4.65;;;;;;;;;;5052618;28;20090;-66
2023/04/13 06:48:03;;;;;;;12.50;4.28;;;;;;;;;;5051868;28;20041;-71
2023/04/13 06:50:29;;;;;;;16.30;4.93;;;;;;;;;;5056240;28;20487;-69
2023/04/13 06:52:55;;;;;;;15.05;4.88;;;;;;;;;;5034996;28;20129;-78
2023/04/13 06:55:21;;;;;;;18.23;5.68;;;;;;;;;;5036660;28;20051;-65
2023/04/13 06:57:48;;;;;;;12.35;4.50;;;;;;;;;;5054205;28;20491;-65
2023/04/13 07:00:14;;;;;;;14.00;3.95;;;;;;;;;;5056018;28;21753;-67
2023/04/13 07:02:41;;;;;;;11.43;3.97;;;;;;;;;;5055542;28;20040;-66
2023/04/13 07:05:10;;;;;;;10.32;2.60;;;;;;;;;;5051606;28;20048;-71
2023/04/13 07:07:36;;;;;;;9.95;2.97;;;;;;;;;;5019936;28;20048;-68
2023/04/13 07:10:03;;;;;;;8.68;2.13;;;;;;;;;;5055058;28;20040;-66
2023/04/13 07:12:29;;;;;;;11.90;2.95;;;;;;;;;;5059602;28;20571;-66
2023/04/13 07:14:55;;;;;;;11.73;3.08;;;;;;;;;;5056085;28;20064;-66
2023/04/13 07:17:21;;;;;;;6.68;2.28;;;;;;;;;;5049785;28;20048;-66
2023/04/13 07:19:48;;;;;;;16.33;2.10;;;;;;;;;;5052810;28;20090;-66
2023/04/13 07:22:15;;;;;;;14.52;2.50;;;;;;;;;;5055664;28;20071;-66
2023/04/13 07:24:41;;;;;;;8.68;2.22;;;;;;;;;;5053140;28;20059;-66
2023/04/13 07:27:07;;;;;;;15.75;2.63;;;;;;;;;;5055076;28;20047;-66
2023/04/13 07:29:34;;;;;;;11.50;2.50;;;;;;;;;;5056028;28;20411;-66
2023/04/13 07:32:01;;;;;;;12.75;2.63;;;;;;;;;;5038218;28;20134;-67
2023/04/13 07:34:28;;;;;;;11.82;2.50;;;;;;;;;;5053123;28;20041;-66
2023/04/13 07:36:54;;;;;;;13.77;2.28;;;;;;;;;;5058763;28;20382;-66
2023/04/13 07:39:21;;;;;;;11.43;2.47;;;;;;;;;;5060397;28;20889;-66
2023/04/13 07:41:47;;;;;;;10.15;2.45;;;;;;;;;;5057697;28;20045;-66
2023/04/13 07:44:13;;;;;;;10.07;2.35;;;;;;;;;;5056959;28;20044;-66
2023/04/13 07:46:40;;;;;;;8.05;2.67;;;;;;;;;;5055309;28;20128;-66
2023/04/13 07:49:06;;;;;;;9.75;2.20;;;;;;;;;;5058092;28;20492;-66
2023/04/13 07:51:33;;;;;;;7.32;1.88;;;;;;;;;;5056341;28;20763;-66
2023/04/13 07:54:00;;;;;;;7.88;1.67;;;;;;;;;;5060465;28;20048;-66
2023/04/13 07:56:26;;;;;;;8.20;1.77;;;;;;;;;;5064175;28;20575;-65
2023/04/13 07:58:53;;;;;;;10.32;2.38;;;;;;;;;;5058572;28;20483;-65
2023/04/13 08:01:20;;;;;;;11.40;2.30;;;;;;;;;;5060057;28;20507;-65
2023/04/13 08:03:46;;;;;;;4.55;1.13;;;;;;;;;;5065623;28;21211;-65
2023/04/13 08:06:13;;;;;;;8.48;1.30;;;;;;;;;;5064895;28;20052;-65
2023/04/13 08:08:39;;;;;;;7.95;1.05;;;;;;;;;;5062628;28;20396;-66
2023/04/13 08:11:07;;;;;;;5.03;0.80;;;;;;;;;;5063286;28;21404;-66
2023/04/13 08:13:33;;;;;;;4.57;0.75;;;;;;;;;;5044880;28;20044;-66
2023/04/13 08:15:59;;;;;;;2.58;0.95;;;;;;;;;;5062790;28;20104;-66
2023/04/13 08:18:26;;;;;;;2.95;0.52;;;;;;;;;;5055325;28;20419;-66
2023/04/13 08:20:56;;;;;;;4.30;0.73;;;;;;;;;;5061656;28;20444;-64
2023/04/13 08:23:22;;;;;;;4.68;0.90;;;;;;;;;;5056201;28;20037;-66
2023/04/13 08:25:48;;;;;;;8.80;1.60;;;;;;;;;;5055537;28;20380;-67
2023/04/13 08:28:16;;;;;;;5.90;1.75;;;;;;;;;;5040719;28;20585;-66
2023/04/13 08:30:42;;;;;;;5.70;1.70;;;;;;;;;;5058950;28;20083;-66
2023/04/13 08:33:09;;;;;;;10.00;2.85;;;;;;;;;;5059064;28;20400;-66
2023/04/13 08:35:38;;;;;;;9.15;2.88;;;;;;;;;;5060177;28;20044;-67
2023/04/13 08:38:06;;;;;;;9.48;2.28;;;;;;;;;;5060872;28;20512;-66
2023/04/13 08:40:37;;;;;;;5.50;1.58;;;;;;;;;;5054968;28;20508;-66
2023/04/13 08:43:03;;;;;;;7.85;1.60;;;;;;;;;;5058513;28;20056;-66
2023/04/13 08:45:29;;;;;;;7.20;1.10;;;;;;;;;;5056875;28;20492;-66
2023/04/13 08:47:56;;;;;;;3.70;0.80;;;;;;;;;;5056343;28;20511;-66
2023/04/13 08:50:24;;;;;;;7.38;1.02;;;;;;;;;;5058842;28;20048;-66
2023/04/13 08:52:50;;;;;;;5.65;1.52;;;;;;;;;;5059501;28;20549;-66
2023/04/13 08:55:17;;;;;;;6.68;0.90;;;;;;;;;;5057972;28;20045;-66
2023/04/13 08:57:44;;;;;;;6.72;1.15;;;;;;;;;;5059432;28;20079;-66
2023/04/13 09:00:14;;;;;;;7.70;1.73;;;;;;;;;;5039474;28;20059;-67
2023/04/13 09:02:41;;;;;;;6.70;2.38;;;;;;;;;;5058081;28;21554;-66
2023/04/13 09:05:14;;;;;;;8.38;1.55;;;;;;;;;;5058576;28;20046;-66
2023/04/13 09:07:42;;;;;;;6.93;1.37;;;;;;;;;;5058156;28;20385;-67
2023/04/13 09:10:08;;;;;;;5.28;1.20;;;;;;;;;;5056820;28;20492;-66
2023/04/13 09:12:35;;;;;;;7.15;1.42;;;;;;;;;;5061356;28;20094;-66
2023/04/13 09:15:04;;;;;;;8.95;1.60;;;;;;;;;;5061823;28;20051;-66
2023/04/13 09:17:32;;;;;;;6.90;1.23;;;;;;;;;;5055925;28;20122;-66
2023/04/13 09:20:20;;;;;;;5.90;1.05;;;;;;;;;;5058664;28;20060;-66
2023/04/13 09:22:46;;;;;;;8.95;1.08;;;;;;;;;;5058789;28;20041;-66
2023/04/13 09:25:19;;;;;;;7.57;0.90;;;;;;;;;;5060176;28;20104;-66
2023/04/13 09:27:45;;;;;;;10.13;1.17;;;;;;;;;;5062483;28;20472;-67
2023/04/13 09:30:12;;;;;;;6.40;1.60;;;;;;;;;;5060811;28;20032;-66
2023/04/13 09:32:38;;;;;;;8.68;1.05;;;;;;;;;;5066543;28;20452;-66
2023/04/13 09:35:07;;;;;;;3.75;0.90;;;;;;;;;;5064246;28;20041;-66
2023/04/13 09:37:34;;;;;;;3.25;0.85;;;;;;;;;;5058959;28;20123;-66
2023/04/13 09:40:09;;;;;;;4.20;0.95;;;;;;;;;;5042926;28;20044;-66
2023/04/13 09:42:36;;;;;;;2.95;0.60;;;;;;;;;;5061772;28;20074;-67
2023/04/13 09:45:02;;;;;;;3.22;0.60;;;;;;;;;;5059794;28;20047;-66
2023/04/13 09:47:37;;;;;;;3.78;0.90;;;;;;;;;;5060799;28;20053;-67
2023/04/13 09:50:04;;;;;;;2.28;0.80;;;;;;;;;;5055904;28;20110;-66
2023/04/13 09:52:31;;;;;;;3.80;0.85;;;;;;;;;;5057189;28;20048;-67
2023/04/13 09:54:57;;;;;;;5.75;0.90;;;;;;;;;;5058202;28;20063;-67
2023/04/13 09:57:24;;;;;;;3.33;1.23;;;;;;;;;;5056788;28;20044;-67
2023/04/13 09:59:52;;;;;;;4.70;0.88;;;;;;;;;;5037399;28;20044;-67
2023/04/13 10:02:18;;;;;;;3.95;0.90;;;;;;;;;;5037045;28;20059;-67
2023/04/13 10:04:45;;;;;;;5.85;1.05;;;;;;;;;;5037472;28;20490;-67
2023/04/13 10:07:12;;;;;;;5.35;1.63;;;;;;;;;;5040742;28;20037;-67
2023/04/13 10:09:40;;;;;;;4.32;1.08;;;;;;;;;;5061289;28;20142;-67
2023/04/13 10:12:10;;;;;;;5.93;1.65;;;;;;;;;;5057298;28;20040;-68
2023/04/13 10:14:38;;;;;;;12.52;2.25;;;;;;;;;;5038403;28;20072;-67
2023/04/13 10:17:04;;;;;;;4.45;1.70;;;;;;;;;;5039350;28;20111;-67
2023/04/13 10:19:50;;;;;;;6.75;1.20;;;;;;;;;;5058093;28;20183;-67
2023/04/13 10:22:19;;;;;;;5.18;1.20;;;;;;;;;;5057246;28;20179;-67
2023/04/13 10:24:45;;;;;;;5.10;1.60;;;;;;;;;;5059582;28;20037;-67
2023/04/13 10:27:14;;;;;;;3.80;1.10;;;;;;;;;;5057662;28;20477;-66
2023/04/13 10:29:40;;;;;;;5.63;1.25;;;;;;;;;;5055407;28;20036;-66
2023/04/13 10:32:06;;;;;;;4.60;1.10;;;;;;;;;;5054384;28;20043;-66
2023/04/13 10:34:33;;;;;;;6.03;1.05;;;;;;;;;;5056475;28;20100;-67
2023/04/13 10:37:07;;;;;;;4.32;0.90;;;;;;;;;;5056385;28;20143;-68
2023/04/13 10:39:34;;;;;;;4.15;1.02;;;;;;;;;;5057689;28;20044;-67
2023/04/13 10:42:02;;;;;;;5.18;1.30;;;;;;;;;;5054874;28;20055;-67
2023/04/13 10:44:40;;;;;;;5.18;1.35;;;;;;;;;;5055874;28;20052;-67
2023/04/13 10:47:07;;;;;;;7.65;1.40;;;;;;;;;;5054594;28;20044;-67
2023/04/13 10:49:33;;;;;;;11.43;1.83;;;;;;;;;;5054960;28;20074;-67
2023/04/13 10:51:59;;;;;;;10.45;2.00;;;;;;;;;;5053290;28;20045;-67
2023/04/13 10:54:27;;;;;;;9.68;2.03;;;;;;;;;;5052951;28;20412;-67
2023/04/13 10:56:57;;;;;;;7.65;1.67;;;;;;;;;;5052986;28;20033;-66
2023/04/13 10:59:23;;;;;;;10.18;2.10;;;;;;;;;;5054785;28;20692;-66
2023/04/13 11:01:49;;;;;;;14.65;2.60;;;;;;;;;;5051472;28;20044;-66
2023/04/13 11:04:17;;;;;;;19.02;3.45;;;;;;;;;;5037736;28;20051;-67
2023/04/13 11:06:43;;;;;;;13.35;2.58;;;;;;;;;;5057627;28;20148;-67
2023/04/13 11:09:10;;;;;;;13.98;2.95;;;;;;;;;;5055358;28;20070;-66
2023/04/13 11:11:38;;;;;;;11.40;1.70;;;;;;;;;;5035909;28;20072;-67
2023/04/13 11:14:04;;;;;;;7.47;1.35;;;;;;;;;;5037101;28;20056;-67
2023/04/13 11:16:30;;;;;;;14.73;2.50;;;;;;;;;;5021880;28;20089;-67
2023/04/13 11:19:01;;;;;;;8.88;2.20;;;;;;;;;;5034382;28;20049;-67
2023/04/13 11:21:27;;;;;;;14.45;2.03;;;;;;;;;;5035634;28;20045;-67
2023/04/13 11:23:54;;;;;;;9.35;1.60;;;;;;;;;;5030683;28;20037;-67
2023/04/13 11:26:31;;;;;;;10.95;1.83;;;;;;;;;;5034613;28;20049;-67
2023/04/13 11:28:57;;;;;;;9.77;1.70;;;;;;;;;;5036186;28;20119;-67
2023/04/13 11:31:36;;;;;;;12.35;2.33;;;;;;;;;;5036884;28;20049;-67
2023/04/13 11:34:04;;;;;;;11.98;2.35;;;;;;;;;;5036619;28;20090;-68
2023/04/13 11:36:31;;;;;;;7.13;1.92;;;;;;;;;;5034529;28;20049;-67
2023/04/13 11:38:59;;;;;;;10.75;2.28;;;;;;;;;;5033456;28;20036;-67
2023/04/13 11:41:27;;;;;;;17.20;4.55;;;;;;;;;;5034385;28;20049;-68
2023/04/13 11:43:54;;;;;;;11.20;1.90;;;;;;;;;;5036073;28;20640;-68
2023/04/13 11:46:23;;;;;;;22.52;4.20;;;;;;;;;;5033626;28;20052;-68
2023/04/13 11:48:51;;;;;;;19.50;3.85;;;;;;;;;;5031174;28;20065;-68
2023/04/13 11:51:18;;;;;;;17.15;2.80;;;;;;;;;;5032589;28;20052;-67
2023/04/13 11:53:45;;;;;;;16.58;3.13;;;;;;;;;;5037297;28;20049;-68
2023/04/13 11:56:12;;;;;;;14.75;2.85;;;;;;;;;;5035422;28;20076;-68
2023/04/13 11:58:38;;;;;;;26.00;4.32;;;;;;;;;;5035099;28;20056;-68
2023/04/13 12:01:08;;;;;;;19.23;3.35;;;;;;;;;;5035770;28;20061;-68
2023/04/13 12:03:35;;;;;;;15.15;3.30;;;;;;;;;;5036702;28;20092;-68
2023/04/13 12:06:02;;;;;;;12.52;3.28;;;;;;;;;;5035225;28;20539;-68
2023/04/13 12:08:28;;;;;;;16.63;3.65;;;;;;;;;;5036347;28;20120;-68
2023/04/13 12:10:56;;;;;;;16.98;2.63;;;;;;;;;;5032958;28;20049;-68
2023/04/13 12:13:22;;;;;;;18.33;3.75;;;;;;;;;;5032181;28;20408;-68
2023/04/13 12:15:49;;;;;;;19.10;3.42;;;;;;;;;;5018368;28;20099;-67
2023/04/13 12:18:15;;;;;;;19.77;3.85;;;;;;;;;;5040612;28;20049;-68
2023/04/13 12:20:42;;;;;;;15.48;3.08;;;;;;;;;;5052281;28;20055;-68
2023/04/13 12:23:17;;;;;;;16.23;3.13;;;;;;;;;;5040766;28;20051;-68
2023/04/13 12:25:58;;;;;;;17.10;4.25;;;;;;;;;;5051642;28;20508;-68
2023/04/13 12:28:27;;;;;;;15.27;2.75;;;;;;;;;;5052632;28;20129;-67
2023/04/13 12:30:54;;;;;;;12.48;2.53;;;;;;;;;;5034447;28;20051;-68
2023/04/13 12:33:20;;;;;;;18.40;3.47;;;;;;;;;;5053526;28;20040;-68
2023/04/13 12:35:46;;;;;;;11.90;2.83;;;;;;;;;;5040834;28;20081;-68
2023/04/13 12:38:12;;;;;;;15.85;2.65;;;;;;;;;;5059499;28;20091;-68
2023/04/13 12:40:38;;;;;;;11.65;2.65;;;;;;;;;;5039497;28;20056;-67
2023/04/13 12:43:05;;;;;;;10.85;2.25;;;;;;;;;;5058265;28;20128;-68
2023/04/13 12:45:31;;;;;;;15.70;3.08;;;;;;;;;;5058689;28;20119;-69
2023/04/13 12:47:57;;;;;;;17.42;3.60;;;;;;;;;;5061115;28;20084;-70
2023/04/13 12:50:23;;;;;;;21.08;3.28;;;;;;;;;;5042039;28;20041;-70
2023/04/13 12:52:49;;;;;;;16.95;3.28;;;;;;;;;;5062902;28;20568;-70
2023/04/13 12:55:16;;;;;;;13.57;3.42;;;;;;;;;;5041882;28;20135;-70
2023/04/13 12:57:42;;;;;;;18.05;3.00;;;;;;;;;;5043118;28;22036;-70
2023/04/13 13:00:10;;;;;;;17.50;3.30;;;;;;;;;;5044760;28;20171;-70
2023/04/13 13:02:36;;;;;;;17.85;2.90;;;;;;;;;;5042841;28;20116;-70
2023/04/13 13:05:03;;;;;;;20.13;3.80;;;;;;;;;;5062488;28;20090;-70
2023/04/13 13:07:30;;;;;;;22.67;3.58;;;;;;;;;;5061992;28;20048;-70
2023/04/13 13:09:59;;;;;;;18.70;2.70;;;;;;;;;;5048404;28;20053;-70
2023/04/13 13:12:28;;;;;;;15.80;2.80;;;;;;;;;;5064406;28;20048;-70
2023/04/13 13:14:55;;;;;;;14.27;3.15;;;;;;;;;;5044623;28;20130;-70
2023/04/13 13:17:21;;;;;;;20.60;2.65;;;;;;;;;;5042718;28;20354;-70
2023/04/13 13:19:47;;;;;;;12.40;2.47;;;;;;;;;;5063172;28;20059;-70
2023/04/13 13:22:14;;;;;;;13.73;2.65;;;;;;;;;;5044641;28;20043;-70
2023/04/13 13:24:40;;;;;;;18.25;3.67;;;;;;;;;;5043145;28;20048;-69
2023/04/13 13:27:06;;;;;;;12.23;2.83;;;;;;;;;;5041754;28;20052;-69
2023/04/13 13:29:35;;;;;;;12.55;2.90;;;;;;;;;;5058389;28;20040;-69
2023/04/13 13:32:01;;;;;;;16.33;3.10;;;;;;;;;;5041032;28;20104;-69
2023/04/13 13:34:28;;;;;;;14.85;3.75;;;;;;;;;;5059242;28;20091;-69
2023/04/13 13:36:54;;;;;;;17.15;2.90;;;;;;;;;;5040813;28;20028;-69
2023/04/13 13:39:21;;;;;;;14.98;3.03;;;;;;;;;;5057868;28;20049;-69
2023/04/13 13:41:48;;;;;;;17.15;3.97;;;;;;;;;;5056200;28;20052;-69
2023/04/13 13:44:14;;;;;;;12.90;2.65;;;;;;;;;;5061489;28;20396;-69
2023/04/13 13:46:40;;;;;;;13.35;3.05;;;;;;;;;;5061146;28;20036;-69
2023/04/13 13:49:07;;;;;;;23.23;3.70;;;;;;;;;;5061088;28;20119;-69
2023/04/13 13:51:33;;;;;;;14.07;2.58;;;;;;;;;;5054980;28;20504;-69
2023/04/13 13:53:59;;;;;;;16.42;3.17;;;;;;;;;;5061140;28;20127;-69
2023/04/13 13:56:25;;;;;;;15.15;4.05;;;;;;;;;;5060769;28;20044;-69
2023/04/13 13:58:52;;;;;;;14.75;2.63;;;;;;;;;;5040418;28;20082;-70
2023/04/13 14:01:18;;;;;;;15.75;3.10;;;;;;;;;;5036853;28;20049;-69
2023/04/13 14:03:44;;;;;;;9.95;2.50;;;;;;;;;;5035399;28;20128;-69
2023/04/13 14:06:10;;;;;;;12.40;3.08;;;;;;;;;;5053493;28;20068;-69
2023/04/13 14:08:36;;;;;;;9.68;1.85;;;;;;;;;;5038699;28;21606;-69
2023/04/13 14:11:03;;;;;;;10.07;1.98;;;;;;;;;;5038174;28;20369;-69
2023/04/13 14:13:30;;;;;;;14.23;2.50;;;;;;;;;;5058463;28;20156;-69
2023/04/13 14:15:56;;;;;;;13.52;2.20;;;;;;;;;;5056825;28;20047;-69
2023/04/13 14:18:22;;;;;;;20.27;3.25;;;;;;;;;;5057105;28;20771;-69
2023/04/13 14:20:49;;;;;;;7.53;2.13;;;;;;;;;;5042733;28;20513;-69
2023/04/13 14:23:16;;;;;;;11.73;2.05;;;;;;;;;;5036171;28;20132;-69
2023/04/13 14:25:42;;;;;;;11.90;2.28;;;;;;;;;;5053680;28;20358;-69
2023/04/13 14:28:10;;;;;;;9.63;2.17;;;;;;;;;;5058252;28;20128;-70
2023/04/13 14:30:36;;;;;;;14.60;2.92;;;;;;;;;;5055747;28;20045;-69
2023/04/13 14:33:03;;;;;;;18.33;3.65;;;;;;;;;;5054202;28;20341;-69
2023/04/13 14:35:29;;;;;;;10.02;2.30;;;;;;;;;;5054097;28;20453;-70